createdAt,value
2023-09-23T00:00:04.656Z,34.50
2023-09-23T00:02:41.830Z,41.42
2023-09-23T00:05:11.083Z,38.75
2023-09-23T00:07:38.470Z,33.33
2023-09-23T00:10:09.881Z,30.90
2023-09-23T00:12:37.692Z,34.53
2023-09-23T00:15:09.037Z,41.50
2023-09-23T00:17:37.517Z,27.02
2023-09-23T00:20:10.679Z,39.35
2023-09-23T00:22:42.022Z,32.45
2023-09-23T00:25:10.495Z,40.08
2023-09-23T00:27:38.405Z,41.25
2023-09-23T00:30:06.792Z,32.60
2023-09-23T00:32:34.240Z,27.23
2023-09-23T00:35:02.016Z,36.85
2023-09-23T00:37:32.068Z,32.53
2023-09-23T00:39:59.115Z,31.10
2023-09-23T00:42:26.753Z,28.70
2023-09-23T00:44:53.816Z,28.38
2023-09-23T00:47:23.893Z,33.67
2023-09-23T00:49:51.062Z,37.00
2023-09-23T00:52:19.425Z,39.20
2023-09-23T00:54:51.355Z,33.22
2023-09-23T00:57:19.037Z,36.67
2023-09-23T00:59:46.294Z,25.70
2023-09-23T01:02:15.552Z,33.47
2023-09-23T01:04:43.135Z,34.00
2023-09-23T01:07:10.946Z,38.17
2023-09-23T01:09:38.856Z,35.65
2023-09-23T01:12:06.489Z,35.78
2023-09-23T01:14:33.630Z,25.58
2023-09-23T01:17:03.273Z,25.60
2023-09-23T01:19:30.527Z,44.22
2023-09-23T01:21:58.216Z,43.20
2023-09-23T01:24:26.943Z,33.60
2023-09-23T01:26:54.254Z,25.60
2023-09-23T01:29:24.077Z,37.92
2023-09-23T01:32:36.787Z,31.67
2023-09-23T01:35:05.453Z,20.10
2023-09-23T01:37:32.946Z,27.17
2023-09-23T01:40:00.301Z,37.20
2023-09-23T01:42:27.868Z,38.03
2023-09-23T01:44:55.954Z,25.65
2023-09-23T01:47:23.308Z,27.85
2023-09-23T01:49:51.227Z,29.50
2023-09-23T01:52:18.835Z,44.00
2023-09-23T01:54:47.602Z,51.95
2023-09-23T01:57:18.382Z,49.03
2023-09-23T01:59:46.050Z,60.25
2023-09-23T02:02:13.607Z,50.55
2023-09-23T02:04:41.695Z,40.72
2023-09-23T02:07:09.559Z,43.03
2023-09-23T02:09:38.572Z,48.38
2023-09-23T02:12:06.003Z,43.25
2023-09-23T02:14:35.165Z,35.55
2023-09-23T02:17:02.453Z,54.15
2023-09-23T02:19:30.213Z,47.63
2023-09-23T02:21:57.539Z,40.85
2023-09-23T02:24:25.191Z,60.83
2023-09-23T02:26:52.929Z,40.20
2023-09-23T02:29:20.357Z,32.53
2023-09-23T02:31:50.910Z,27.50
2023-09-23T02:34:19.765Z,49.60
2023-09-23T02:36:47.034Z,29.75
2023-09-23T02:39:19.001Z,32.10
2023-09-23T02:41:47.147Z,35.80
2023-09-23T02:44:16.339Z,36.00
2023-09-23T02:46:44.509Z,28.65
2023-09-23T02:49:11.664Z,36.60
2023-09-23T02:51:39.855Z,30.90
2023-09-23T02:54:07.282Z,26.60
2023-09-23T02:56:37.685Z,21.80
2023-09-23T02:59:15.449Z,23.08
2023-09-23T03:01:48.277Z,30.52
2023-09-23T03:04:21.260Z,28.52
2023-09-23T03:06:57.351Z,28.73
2023-09-23T03:09:27.617Z,26.02
2023-09-23T03:11:59.103Z,28.55
2023-09-23T03:14:38.942Z,33.83
2023-09-23T03:17:08.954Z,24.88
2023-09-23T03:19:37.413Z,34.92
2023-09-23T03:22:09.452Z,34.20
2023-09-23T03:24:36.962Z,30.55
2023-09-23T03:27:04.309Z,28.45
2023-09-23T03:29:32.520Z,28.95
2023-09-23T03:32:01.175Z,29.88
2023-09-23T03:34:29.161Z,30.20
2023-09-23T03:36:56.411Z,31.80
2023-09-23T03:39:24.007Z,42.60
2023-09-23T03:41:51.565Z,30.80
2023-09-23T03:44:19.123Z,25.73
2023-09-23T03:46:51.792Z,31.08
2023-09-23T03:49:20.014Z,24.70
2023-09-23T03:51:47.097Z,40.75
2023-09-23T03:54:14.677Z,30.08
2023-09-23T03:56:42.331Z,39.33
2023-09-23T03:59:10.264Z,29.38
2023-09-23T04:01:41.216Z,29.92
2023-09-23T04:04:12.778Z,27.33
2023-09-23T04:06:40.185Z,30.38
2023-09-23T04:09:08.911Z,24.83
2023-09-23T04:11:37.065Z,26.95
2023-09-23T04:14:04.334Z,31.65
2023-09-23T04:16:32.110Z,28.38
2023-09-23T04:18:59.482Z,31.60
2023-09-23T04:21:27.388Z,32.60
2023-09-23T04:23:54.468Z,35.55
2023-09-23T04:26:23.426Z,24.52
2023-09-23T04:28:53.644Z,27.67
2023-09-23T04:31:25.651Z,23.52
2023-09-23T04:33:53.479Z,29.85
2023-09-23T04:36:22.896Z,26.05
2023-09-23T04:38:50.679Z,25.10
2023-09-23T04:41:18.081Z,29.23
2023-09-23T04:43:45.714Z,34.90
2023-09-23T04:46:16.610Z,31.23
2023-09-23T04:48:44.801Z,35.83
2023-09-23T04:51:12.139Z,29.48
2023-09-23T04:53:39.746Z,27.35
2023-09-23T04:56:18.387Z,37.85
2023-09-23T04:58:46.453Z,25.98
2023-09-23T05:01:15.761Z,46.13
2023-09-23T05:03:43.915Z,35.95
2023-09-23T05:06:12.409Z,28.75
2023-09-23T05:08:39.925Z,31.80
2023-09-23T05:11:08.495Z,28.20
2023-09-23T05:13:38.810Z,26.10
2023-09-23T05:16:05.923Z,27.85
2023-09-23T05:18:34.250Z,26.80
2023-09-23T05:21:01.757Z,29.05
2023-09-23T05:23:30.288Z,31.75
2023-09-23T05:25:59.534Z,30.70
2023-09-23T05:28:28.539Z,29.02
2023-09-23T05:30:55.650Z,34.00
2023-09-23T05:33:23.186Z,35.40
2023-09-23T05:35:50.676Z,38.30
2023-09-23T05:38:18.067Z,36.17
2023-09-23T05:40:45.221Z,38.47
2023-09-23T05:43:13.204Z,46.95
2023-09-23T05:45:40.298Z,44.30
2023-09-23T05:48:07.995Z,44.47
2023-09-23T05:50:35.423Z,47.33
2023-09-23T05:53:03.484Z,62.08
2023-09-23T05:55:32.519Z,37.42
2023-09-23T05:57:59.895Z,40.78
2023-09-23T06:00:27.747Z,40.15
2023-09-23T06:02:55.200Z,43.65
2023-09-23T06:05:23.274Z,39.95
2023-09-23T06:07:51.332Z,44.05
2023-09-23T06:10:20.473Z,45.00
2023-09-23T06:12:48.005Z,43.97
2023-09-23T06:15:15.273Z,41.67
2023-09-23T06:17:42.969Z,39.28
2023-09-23T06:20:11.381Z,37.25
2023-09-23T06:22:38.947Z,37.08
2023-09-23T06:25:06.534Z,45.85
2023-09-23T06:27:34.180Z,43.72
2023-09-23T06:30:01.301Z,39.58
2023-09-23T06:32:29.205Z,30.77
2023-09-23T06:34:56.910Z,34.08
2023-09-23T06:37:25.048Z,37.45
2023-09-23T06:39:52.163Z,34.58
2023-09-23T06:42:19.668Z,31.95
2023-09-23T06:44:47.666Z,29.80
2023-09-23T06:47:15.156Z,34.33
2023-09-23T06:49:42.387Z,41.15
2023-09-23T06:52:11.759Z,40.78
2023-09-23T06:54:38.837Z,35.75
2023-09-23T06:57:06.781Z,36.38
2023-09-23T06:59:33.878Z,37.10
2023-09-23T07:02:01.268Z,35.97
2023-09-23T07:04:29.808Z,40.88
2023-09-23T07:06:57.256Z,45.20
2023-09-23T07:09:24.341Z,40.22
2023-09-23T07:11:52.067Z,31.33
2023-09-23T07:14:19.839Z,40.70
2023-09-23T07:16:47.557Z,39.38
2023-09-23T07:19:14.824Z,44.47
2023-09-23T07:21:42.360Z,33.35
2023-09-23T07:24:11.163Z,33.97
2023-09-23T07:26:41.218Z,50.47
2023-09-23T07:29:08.512Z,36.97
2023-09-23T07:31:36.134Z,45.08
2023-09-23T07:34:03.360Z,36.72
2023-09-23T07:36:34.080Z,39.03
2023-09-23T07:39:03.614Z,47.33
2023-09-23T07:41:31.140Z,48.97
2023-09-23T07:43:59.190Z,43.28
2023-09-23T07:46:26.429Z,51.22
2023-09-23T07:48:53.982Z,44.28
2023-09-23T07:51:21.264Z,38.38
2023-09-23T07:53:48.910Z,30.50
2023-09-23T07:56:16.383Z,38.42
2023-09-23T07:58:44.046Z,41.67
2023-09-23T08:01:11.129Z,38.58
2023-09-23T08:03:41.582Z,39.08
2023-09-23T08:06:09.128Z,59.40
2023-09-23T08:08:36.234Z,76.97
2023-09-23T08:11:04.445Z,79.63
2023-09-23T08:13:31.559Z,70.25
2023-09-23T08:16:00.209Z,69.78
2023-09-23T08:18:27.362Z,70.68
2023-09-23T08:21:00.792Z,70.10
2023-09-23T08:23:28.382Z,71.25
2023-09-23T08:25:57.519Z,66.68
2023-09-23T08:28:24.765Z,69.85
2023-09-23T08:30:55.353Z,66.40
2023-09-23T08:33:23.149Z,40.45
2023-09-23T08:35:50.312Z,41.72
2023-09-23T08:38:17.948Z,40.00
2023-09-23T08:40:46.368Z,42.75
2023-09-23T08:43:14.084Z,45.05
2023-09-23T08:45:45.236Z,27.17
2023-09-23T08:48:14.715Z,33.85
2023-09-23T08:50:48.150Z,36.97
2023-09-23T08:53:18.409Z,34.35
2023-09-23T08:55:46.352Z,30.02
2023-09-23T08:58:13.511Z,29.58
2023-09-23T09:00:47.403Z,31.25
2023-09-23T09:03:15.566Z,42.70
2023-09-23T09:05:44.312Z,41.88
2023-09-23T09:08:12.224Z,48.30
2023-09-23T09:10:39.549Z,46.08
2023-09-23T09:13:08.121Z,36.88
2023-09-23T09:15:37.000Z,44.45
2023-09-23T09:18:05.140Z,31.27
2023-09-23T09:20:33.282Z,36.53
2023-09-23T09:23:01.147Z,38.60
2023-09-23T09:25:28.280Z,30.83
2023-09-23T09:27:56.276Z,33.08
2023-09-23T09:30:23.364Z,34.67
2023-09-23T09:32:52.060Z,35.30
2023-09-23T09:35:19.658Z,36.40
2023-09-23T09:37:55.468Z,29.42
2023-09-23T09:40:26.442Z,30.70
2023-09-23T09:42:59.056Z,26.55
2023-09-23T09:45:28.321Z,20.45
2023-09-23T09:48:01.827Z,27.45
2023-09-23T09:50:30.241Z,37.33
2023-09-23T09:52:57.606Z,34.17
2023-09-23T09:55:27.080Z,37.55
2023-09-23T09:57:56.027Z,28.08
2023-09-23T10:00:29.928Z,34.30
2023-09-23T10:03:07.692Z,28.75
2023-09-23T10:05:52.055Z,26.92
2023-09-23T10:08:21.764Z,33.58
2023-09-23T10:10:50.139Z,36.47
2023-09-23T10:13:25.666Z,26.85
2023-09-23T10:16:06.923Z,30.00
2023-09-23T10:18:41.256Z,33.47
2023-09-23T10:21:09.922Z,30.60
2023-09-23T10:23:42.312Z,43.92
2023-09-23T10:26:20.252Z,26.27
2023-09-23T10:29:01.989Z,25.15
2023-09-23T10:31:32.354Z,28.92
2023-09-23T10:34:04.352Z,32.85
2023-09-23T10:36:31.618Z,36.28
2023-09-23T10:39:00.251Z,40.97
2023-09-23T10:41:36.637Z,33.60
2023-09-23T10:44:04.829Z,34.75
2023-09-23T10:46:33.824Z,30.20
2023-09-23T10:49:02.980Z,33.63
2023-09-23T10:51:30.243Z,29.35
2023-09-23T10:53:58.093Z,32.75
2023-09-23T10:56:26.658Z,31.67
2023-09-23T10:58:54.529Z,24.23
2023-09-23T11:01:25.732Z,31.75
2023-09-23T11:03:53.674Z,46.55
2023-09-23T11:06:20.948Z,37.25
2023-09-23T11:08:48.411Z,30.70
2023-09-23T11:11:15.759Z,29.30
2023-09-23T11:13:43.259Z,28.58
2023-09-23T11:16:12.077Z,34.50
2023-09-23T11:18:39.599Z,36.85
2023-09-23T11:21:08.364Z,35.88
2023-09-23T11:23:36.074Z,33.00
2023-09-23T11:26:03.757Z,30.85
2023-09-23T11:28:31.584Z,30.70
2023-09-23T11:30:59.219Z,28.83
2023-09-23T11:33:26.777Z,32.88
2023-09-23T11:35:56.006Z,31.60
2023-09-23T11:38:23.306Z,41.22
2023-09-23T11:40:50.566Z,43.08
2023-09-23T11:43:18.165Z,37.38
2023-09-23T11:45:46.106Z,32.22
2023-09-23T11:48:13.829Z,26.67
2023-09-23T11:50:41.246Z,31.30
2023-09-23T11:53:09.206Z,41.17
2023-09-23T11:55:36.496Z,28.88
2023-09-23T11:58:04.067Z,36.85
2023-09-23T12:00:31.628Z,32.72
2023-09-23T12:02:59.145Z,34.50
2023-09-23T12:05:31.430Z,31.52
2023-09-23T12:08:01.161Z,38.03
2023-09-23T12:10:31.159Z,32.22
2023-09-23T12:13:05.379Z,26.45
2023-09-23T12:15:33.774Z,33.47
2023-09-23T12:18:01.115Z,35.75
2023-09-23T12:20:30.478Z,35.97
2023-09-23T12:23:02.580Z,40.15
2023-09-23T12:25:30.084Z,32.63
2023-09-23T12:27:57.489Z,35.03
2023-09-23T12:30:24.854Z,43.97
2023-09-23T12:32:52.253Z,32.70
2023-09-23T12:35:20.512Z,30.27
2023-09-23T12:37:47.647Z,34.20
2023-09-23T12:40:15.535Z,45.42
2023-09-23T12:42:43.142Z,30.10
2023-09-23T12:45:13.241Z,30.55
2023-09-23T12:47:55.904Z,32.55
2023-09-23T12:50:25.905Z,34.08
2023-09-23T12:52:55.710Z,41.67
2023-09-23T12:55:23.455Z,35.08
2023-09-23T12:57:50.544Z,35.10
2023-09-23T13:00:18.461Z,34.80
2023-09-23T13:02:45.685Z,36.03
2023-09-23T13:05:13.962Z,48.40
2023-09-23T13:07:41.065Z,31.67
2023-09-23T13:10:12.721Z,36.72
2023-09-23T13:12:41.478Z,39.47
2023-09-23T13:15:09.456Z,31.40
2023-09-23T13:17:36.553Z,33.30
2023-09-23T13:20:04.577Z,37.40
2023-09-23T13:22:31.695Z,44.67
2023-09-23T13:24:58.805Z,41.80
2023-09-23T13:27:25.966Z,38.88
2023-09-23T13:29:53.086Z,28.13
2023-09-23T13:32:20.252Z,41.00
2023-09-23T13:34:47.460Z,31.45
2023-09-23T13:37:14.560Z,37.30
2023-09-23T13:39:41.652Z,35.58
2023-09-23T13:42:09.762Z,35.88
2023-09-23T13:44:37.182Z,45.45
2023-09-23T13:47:04.669Z,33.80
2023-09-23T13:49:32.208Z,37.13
2023-09-23T13:51:59.460Z,30.08
2023-09-23T13:54:26.708Z,47.35
2023-09-23T13:56:53.809Z,36.70
2023-09-23T13:59:21.053Z,42.70
2023-09-23T14:01:48.285Z,46.28
2023-09-23T14:04:15.447Z,33.78
2023-09-23T14:06:42.756Z,31.17
2023-09-23T14:09:11.230Z,50.92
2023-09-23T14:11:38.780Z,29.90
2023-09-23T14:14:06.298Z,36.83
2023-09-23T14:16:34.071Z,37.88
2023-09-23T14:19:01.324Z,44.33
2023-09-23T14:21:28.542Z,43.03
2023-09-23T14:23:55.720Z,35.60
2023-09-23T14:26:22.947Z,46.10
2023-09-23T14:28:50.045Z,36.30
2023-09-23T14:31:17.368Z,34.85
2023-09-23T14:33:44.586Z,45.78
2023-09-23T14:36:11.938Z,42.30
2023-09-23T14:38:39.396Z,42.88
2023-09-23T14:41:06.612Z,36.40
2023-09-23T14:43:34.181Z,51.70
2023-09-23T14:46:01.381Z,39.17
2023-09-23T14:48:29.223Z,42.13
2023-09-23T14:50:56.573Z,48.17
2023-09-23T14:53:23.707Z,45.38
2023-09-23T14:55:51.974Z,62.58
2023-09-23T14:58:19.083Z,56.13
2023-09-23T15:00:46.665Z,48.30
2023-09-23T15:03:14.038Z,53.97
2023-09-23T15:05:41.383Z,40.40
2023-09-23T15:08:08.541Z,54.65
2023-09-23T15:10:36.690Z,47.05
2023-09-23T15:13:04.040Z,61.75
2023-09-23T15:15:31.198Z,57.17
2023-09-23T15:17:58.444Z,46.10
2023-09-23T15:20:25.700Z,46.30
2023-09-23T15:22:52.867Z,50.20
2023-09-23T15:25:20.011Z,61.25
2023-09-23T15:27:47.228Z,49.40
2023-09-23T15:30:15.462Z,47.65
2023-09-23T15:32:42.675Z,45.33
2023-09-23T15:35:10.262Z,47.47
2023-09-23T15:37:37.455Z,50.13
2023-09-23T15:40:10.373Z,49.72
2023-09-23T15:42:37.756Z,72.15
2023-09-23T15:45:05.314Z,61.67
2023-09-23T15:47:32.466Z,54.80
2023-09-23T15:49:59.801Z,77.10
2023-09-23T15:52:26.932Z,59.70
2023-09-23T15:54:54.903Z,54.97
2023-09-23T15:57:21.993Z,49.65
2023-09-23T15:59:49.216Z,56.50
2023-09-23T16:02:16.382Z,68.90
2023-09-23T16:04:43.585Z,66.20
2023-09-23T16:07:10.691Z,63.75
2023-09-23T16:09:37.856Z,55.47
2023-09-23T16:12:06.495Z,47.67
2023-09-23T16:14:33.621Z,72.45
2023-09-23T16:17:01.031Z,65.63
2023-09-23T16:19:28.357Z,61.08
2023-09-23T16:21:57.159Z,62.33
2023-09-23T16:24:24.450Z,74.40
2023-09-23T16:26:51.554Z,66.38
2023-09-23T16:29:19.769Z,82.82
2023-09-23T16:31:46.912Z,87.75
2023-09-23T16:34:14.455Z,127.30
2023-09-23T16:36:42.604Z,72.07
2023-09-23T16:39:09.662Z,71.47
2023-09-23T16:41:36.753Z,77.20
2023-09-23T16:44:03.979Z,61.92
2023-09-23T16:46:32.356Z,76.50
2023-09-23T16:49:01.176Z,63.00
2023-09-23T16:51:28.437Z,66.32
2023-09-23T16:53:56.785Z,67.40
2023-09-23T16:56:24.005Z,78.25
2023-09-23T16:58:51.180Z,76.30
2023-09-23T17:01:18.488Z,78.75
2023-09-23T17:03:46.182Z,78.57
2023-09-23T17:06:13.660Z,78.30
2023-09-23T17:08:41.389Z,79.50
2023-09-23T17:11:09.388Z,74.45
2023-09-23T17:13:39.447Z,76.78
2023-09-23T17:16:07.341Z,74.25
2023-09-23T17:18:34.961Z,85.72
2023-09-23T17:21:02.795Z,78.50
2023-09-23T17:23:29.948Z,87.65
2023-09-23T17:25:57.903Z,85.90
2023-09-23T17:28:25.083Z,63.80
2023-09-23T17:30:52.816Z,85.07
2023-09-23T17:33:20.032Z,84.32
2023-09-23T17:35:56.690Z,94.72
2023-09-23T17:38:24.711Z,100.13
2023-09-23T17:40:52.202Z,89.05
2023-09-23T17:43:20.897Z,85.57
2023-09-23T17:45:47.971Z,77.90
2023-09-23T17:48:15.609Z,79.32
2023-09-23T17:50:42.979Z,75.22
2023-09-23T17:53:10.801Z,77.15
2023-09-23T17:55:38.336Z,71.45
2023-09-23T17:58:07.056Z,72.32
2023-09-23T18:00:35.405Z,59.95
2023-09-23T18:03:03.245Z,48.63
2023-09-23T18:05:30.456Z,61.95
2023-09-23T18:07:59.556Z,43.67
2023-09-23T18:10:26.973Z,44.97
2023-09-23T18:12:54.546Z,50.30
2023-09-23T18:15:22.419Z,50.15
2023-09-23T18:17:50.190Z,46.33
2023-09-23T18:20:18.410Z,57.33
2023-09-23T18:22:46.940Z,47.17
2023-09-23T18:25:14.194Z,51.25
2023-09-23T18:27:42.136Z,60.75
2023-09-23T18:30:10.453Z,53.25
2023-09-23T18:32:40.447Z,44.40
2023-09-23T18:35:09.032Z,52.03
2023-09-23T18:37:36.720Z,41.20
2023-09-23T18:40:04.177Z,44.83
2023-09-23T18:42:32.097Z,50.30
2023-09-23T18:44:59.277Z,39.17
2023-09-23T18:47:26.487Z,49.92
2023-09-23T18:49:53.732Z,44.03
2023-09-23T18:52:20.888Z,41.35
2023-09-23T18:54:48.066Z,43.65
2023-09-23T18:57:15.331Z,37.05
2023-09-23T18:59:42.636Z,40.20
2023-09-23T19:02:10.865Z,38.70
2023-09-23T19:04:38.136Z,46.03
2023-09-23T19:07:05.729Z,34.72
2023-09-23T19:09:33.509Z,41.22
2023-09-23T19:12:01.418Z,57.03
2023-09-23T19:14:28.496Z,59.35
2023-09-23T19:16:55.992Z,56.00
2023-09-23T19:19:24.469Z,56.13
2023-09-23T19:21:51.675Z,55.92
2023-09-23T19:24:18.787Z,64.20
2023-09-23T19:26:56.570Z,48.65
2023-09-23T19:29:25.091Z,54.33
2023-09-23T19:31:52.327Z,52.58
2023-09-23T19:34:19.366Z,55.22
2023-09-23T19:36:46.561Z,64.35
2023-09-23T19:39:15.798Z,58.33
2023-09-23T19:41:43.229Z,57.17
2023-09-23T19:44:10.660Z,62.78
2023-09-23T19:46:38.022Z,59.22
2023-09-23T19:49:05.162Z,69.45
2023-09-23T19:51:33.984Z,62.40
2023-09-23T19:54:01.570Z,53.95
2023-09-23T19:56:30.206Z,59.15
2023-09-23T19:58:57.942Z,63.80
2023-09-23T20:01:25.203Z,64.18
2023-09-23T20:03:53.675Z,67.47
2023-09-23T20:06:22.176Z,63.67
2023-09-23T20:08:49.976Z,61.45
2023-09-23T20:11:19.530Z,52.70
2023-09-23T20:13:48.028Z,61.28
2023-09-23T20:16:15.309Z,63.03
2023-09-23T20:18:43.022Z,68.32
2023-09-23T20:21:10.176Z,54.88
2023-09-23T20:23:37.715Z,52.95
2023-09-23T20:26:05.240Z,60.88
2023-09-23T20:28:34.196Z,62.47
2023-09-23T20:31:02.292Z,48.63
2023-09-23T20:33:33.716Z,64.05
2023-09-23T20:36:01.874Z,48.65
2023-09-23T20:38:29.190Z,54.42
2023-09-23T20:41:07.830Z,55.35
2023-09-23T20:43:37.708Z,60.33
2023-09-23T20:46:11.099Z,60.63
2023-09-23T20:48:38.973Z,62.45
2023-09-23T20:51:06.330Z,47.38
2023-09-23T20:53:35.922Z,52.67
2023-09-23T20:56:06.849Z,49.55
2023-09-23T20:58:36.605Z,50.80
2023-09-23T21:01:03.719Z,55.45
2023-09-23T21:03:31.905Z,49.80
2023-09-23T21:05:59.140Z,39.15
2023-09-23T21:08:27.447Z,61.75
2023-09-23T21:10:54.544Z,67.95
2023-09-23T21:13:22.007Z,46.80
2023-09-23T21:15:59.247Z,45.65
2023-09-23T21:18:26.737Z,54.42
2023-09-23T21:20:53.928Z,54.17
2023-09-23T21:23:21.945Z,49.45
2023-09-23T21:25:53.746Z,54.90
2023-09-23T21:28:21.493Z,61.55
2023-09-23T21:30:49.228Z,53.70
2023-09-23T21:33:17.436Z,40.10
2023-09-23T21:35:44.798Z,42.90
2023-09-23T21:38:12.299Z,57.63
2023-09-23T21:40:44.439Z,48.08
2023-09-23T21:43:11.808Z,56.50
2023-09-23T21:45:40.590Z,61.15
2023-09-23T21:48:09.354Z,58.90
2023-09-23T21:50:36.921Z,65.53
2023-09-23T21:53:04.681Z,59.85
2023-09-23T21:55:31.920Z,51.55
2023-09-23T21:58:00.168Z,55.15
2023-09-23T22:00:28.098Z,58.95
2023-09-23T22:03:01.274Z,47.95
2023-09-23T22:05:30.735Z,40.95
2023-09-23T22:08:05.268Z,60.13
2023-09-23T22:10:33.223Z,67.72
2023-09-23T22:13:01.672Z,56.97
2023-09-23T22:15:29.644Z,50.38
2023-09-23T22:17:59.220Z,50.70
2023-09-23T22:20:29.405Z,46.63
2023-09-23T22:22:58.024Z,50.05
2023-09-23T22:25:26.959Z,52.42
2023-09-23T22:27:55.584Z,57.67
2023-09-23T22:30:27.583Z,64.63
2023-09-23T22:32:57.350Z,60.50
2023-09-23T22:35:32.069Z,63.70
2023-09-23T22:38:00.760Z,57.85
2023-09-23T22:40:28.324Z,63.22
2023-09-23T22:43:00.088Z,52.53
2023-09-23T22:45:38.686Z,58.35
2023-09-23T22:48:09.186Z,47.35
2023-09-23T22:50:36.527Z,51.03
2023-09-23T22:53:06.283Z,48.90
2023-09-23T22:55:34.356Z,62.35
2023-09-23T22:58:01.780Z,49.50
2023-09-23T23:00:29.092Z,55.72
2023-09-23T23:02:58.532Z,53.28
2023-09-23T23:05:27.235Z,48.53
2023-09-23T23:07:56.841Z,39.30
2023-09-23T23:10:24.396Z,60.13
2023-09-23T23:12:52.432Z,51.88
2023-09-23T23:15:19.683Z,47.63
2023-09-23T23:17:48.684Z,53.38
2023-09-23T23:20:33.728Z,49.67
2023-09-23T23:23:01.659Z,54.35
2023-09-23T23:25:29.678Z,55.38
2023-09-23T23:27:57.199Z,54.08
2023-09-23T23:30:24.693Z,45.63
2023-09-23T23:32:53.546Z,49.92
2023-09-23T23:35:23.893Z,45.28
2023-09-23T23:37:52.817Z,61.55
2023-09-23T23:40:24.239Z,45.17
2023-09-23T23:42:52.242Z,44.50
2023-09-23T23:45:21.074Z,47.65
2023-09-23T23:47:54.193Z,55.60
2023-09-23T23:50:24.164Z,40.85
2023-09-23T23:52:52.264Z,44.63
2023-09-23T23:55:20.372Z,54.95
2023-09-23T23:57:48.638Z,43.35
